Time;durP1;ratioP1;P1;durP2;ratioP2;P2;SDS_P1;SDS_P2;PMS_P1;PMS_P2;Temp;Humidity;BMP_temperature;BMP_pressure;BME280_temperature;BME280_humidity;BME280_pressure;Samples;Min_cycle;Max_cycle;Signal;HPM_P1;HPM_P2
2023/02/19 00:00:14;;;;;;;9.55;6.88;;;;;;;;;;5053494;28;20025;-73
2023/02/19 00:03:01;;;;;;;12.18;7.10;;;;;;;;;;5054322;28;20025;-74
2023/02/19 00:05:46;;;;;;;8.13;6.30;;;;;;;;;;5054246;28;20396;-73
2023/02/19 00:08:33;;;;;;;9.98;6.80;;;;;;;;;;5053243;28;20476;-73
2023/02/19 00:11:20;;;;;;;13.45;6.53;;;;;;;;;;5053783;28;20044;-75
2023/02/19 00:14:06;;;;;;;9.13;5.95;;;;;;;;;;5054253;28;20029;-74
2023/02/19 00:16:51;;;;;;;9.30;6.05;;;;;;;;;;5053917;28;20025;-75
2023/02/19 00:19:37;;;;;;;9.27;6.03;;;;;;;;;;5053432;28;20124;-75
2023/02/19 00:22:22;;;;;;;9.80;5.95;;;;;;;;;;5052987;28;20056;-75
2023/02/19 00:25:08;;;;;;;11.35;6.18;;;;;;;;;;5053232;28;20035;-75
2023/02/19 00:27:53;;;;;;;10.93;6.15;;;;;;;;;;5053571;28;20031;-74
2023/02/19 00:30:39;;;;;;;8.23;5.63;;;;;;;;;;5053017;28;20021;-74
2023/02/19 00:33:27;;;;;;;10.65;6.20;;;;;;;;;;5053209;28;20060;-75
2023/02/19 00:36:13;;;;;;;9.65;6.40;;;;;;;;;;5054087;28;20036;-75
2023/02/19 00:38:59;;;;;;;8.88;5.70;;;;;;;;;;5053941;28;20020;-75
2023/02/19 00:41:46;;;;;;;11.50;6.05;;;;;;;;;;5053032;28;20056;-74
2023/02/19 00:44:31;;;;;;;10.80;5.45;;;;;;;;;;5039823;28;20017;-75
2023/02/19 00:47:17;;;;;;;9.10;5.82;;;;;;;;;;5052708;28;20449;-75
2023/02/19 00:50:03;;;;;;;8.07;5.55;;;;;;;;;;5055521;28;20511;-74
2023/02/19 00:52:48;;;;;;;8.82;5.80;;;;;;;;;;5056929;28;20017;-74
2023/02/19 00:55:34;;;;;;;8.63;5.63;;;;;;;;;;5056747;28;20024;-75
2023/02/19 00:58:19;;;;;;;15.73;5.65;;;;;;;;;;5056714;28;20108;-75
2023/02/19 01:01:05;;;;;;;9.45;6.10;;;;;;;;;;5056342;28;20025;-74
2023/02/19 01:03:51;;;;;;;9.68;5.78;;;;;;;;;;5057323;28;20096;-74
2023/02/19 01:06:36;;;;;;;8.68;5.57;;;;;;;;;;5057176;28;20055;-75
2023/02/19 01:09:22;;;;;;;8.02;5.32;;;;;;;;;;5056355;28;20361;-75
2023/02/19 01:12:08;;;;;;;8.40;5.10;;;;;;;;;;5056988;28;20028;-75
2023/02/19 01:14:53;;;;;;;8.52;5.30;;;;;;;;;;5056620;28;20044;-75
2023/02/19 01:17:39;;;;;;;7.72;5.75;;;;;;;;;;5056755;28;20438;-75
2023/02/19 01:20:25;;;;;;;8.70;5.93;;;;;;;;;;5056516;28;20035;-75
2023/02/19 01:23:11;;;;;;;8.00;5.63;;;;;;;;;;5056884;28;20033;-75
2023/02/19 01:25:57;;;;;;;8.02;6.13;;;;;;;;;;5056466;28;20414;-75
2023/02/19 01:28:43;;;;;;;9.77;6.57;;;;;;;;;;5056751;28;20040;-75
2023/02/19 01:31:29;;;;;;;10.15;6.40;;;;;;;;;;5055952;28;20112;-74
2023/02/19 01:34:14;;;;;;;11.52;6.45;;;;;;;;;;5056856;28;20144;-74
2023/02/19 01:37:00;;;;;;;11.18;7.05;;;;;;;;;;5056240;28;20017;-74
2023/02/19 01:39:46;;;;;;;10.20;6.82;;;;;;;;;;5056670;28;20032;-74
2023/02/19 01:42:32;;;;;;;10.30;7.25;;;;;;;;;;5056085;28;20017;-75
2023/02/19 01:45:25;;;;;;;10.98;7.20;;;;;;;;;;5056081;28;20120;-75
2023/02/19 01:48:15;;;;;;;13.25;7.70;;;;;;;;;;5056002;28;20461;-74
2023/02/19 01:51:09;;;;;;;10.18;6.80;;;;;;;;;;5056433;28;20020;-75
2023/02/19 01:53:57;;;;;;;12.07;7.53;;;;;;;;;;5055988;28;20025;-75
2023/02/19 01:56:44;;;;;;;14.25;8.00;;;;;;;;;;5055729;28;20020;-74
2023/02/19 01:59:30;;;;;;;11.85;7.47;;;;;;;;;;5055762;28;20100;-74
2023/02/19 02:02:16;;;;;;;13.25;8.07;;;;;;;;;;5055453;28;20047;-75
2023/02/19 02:05:02;;;;;;;14.48;7.75;;;;;;;;;;5055808;28;20412;-74
2023/02/19 02:10:53;;;;;;;12.55;7.72;;;;;;;;;;5056203;28;20028;-75
2023/02/19 02:13:39;;;;;;;13.93;8.57;;;;;;;;;;5057206;28;20032;-74
2023/02/19 02:16:24;;;;;;;13.48;7.82;;;;;;;;;;5056026;28;20457;-75
2023/02/19 02:19:28;;;;;;;13.18;8.00;;;;;;;;;;5055789;28;20031;-75
2023/02/19 02:22:24;;;;;;;14.40;8.10;;;;;;;;;;5055113;28;20485;-81
2023/02/19 02:25:13;;;;;;;11.63;7.72;;;;;;;;;;5056207;28;20123;-80
2023/02/19 02:28:04;;;;;;;13.50;7.95;;;;;;;;;;5055271;28;20357;-81
2023/02/19 02:30:55;;;;;;;15.23;8.38;;;;;;;;;;5055685;28;20040;-80
2023/02/19 02:33:47;;;;;;;15.45;7.80;;;;;;;;;;5055093;28;20327;-80
2023/02/19 02:36:34;;;;;;;13.85;8.00;;;;;;;;;;5055278;28;20036;-81
2023/02/19 02:39:21;;;;;;;13.55;7.82;;;;;;;;;;5055592;28;20521;-80
2023/02/19 02:45:35;;;;;;;14.50;8.18;;;;;;;;;;5055272;28;20021;-80
2023/02/19 02:48:40;;;;;;;13.20;7.78;;;;;;;;;;5054802;28;20053;-80
2023/02/19 02:51:27;;;;;;;13.35;8.27;;;;;;;;;;5054936;28;20032;-81
2023/02/19 02:57:25;;;;;;;12.38;7.65;;;;;;;;;;5055548;28;20404;-79
2023/02/19 03:00:12;;;;;;;15.70;8.25;;;;;;;;;;5054824;28;20024;-79
2023/02/19 03:02:57;;;;;;;13.57;7.97;;;;;;;;;;5055055;28;20013;-79
2023/02/19 03:05:52;;;;;;;15.18;7.97;;;;;;;;;;5055891;28;20032;-80
2023/02/19 03:08:44;;;;;;;14.50;8.45;;;;;;;;;;5055850;28;20029;-79
2023/02/19 03:20:56;;;;;;;13.20;8.88;;;;;;;;;;5055046;28;20441;-81
2023/02/19 03:26:52;;;;;;;15.73;8.48;;;;;;;;;;5068228;28;20017;-79
2023/02/19 03:29:39;;;;;;;12.45;8.45;;;;;;;;;;5066104;28;20058;-77
2023/02/19 03:32:31;;;;;;;12.98;8.18;;;;;;;;;;5063171;28;20433;-80
2023/02/19 03:35:18;;;;;;;14.10;8.68;;;;;;;;;;5055976;28;20029;-78
2023/02/19 03:38:06;;;;;;;13.63;8.68;;;;;;;;;;5055856;28;20066;-79
2023/02/19 03:40:58;;;;;;;14.48;8.82;;;;;;;;;;5054924;28;20428;-79
2023/02/19 03:44:00;;;;;;;13.90;9.13;;;;;;;;;;5055346;28;20399;-81
2023/02/19 03:47:15;;;;;;;16.45;9.40;;;;;;;;;;5054435;28;20029;-78
2023/02/19 03:50:18;;;;;;;17.05;9.18;;;;;;;;;;5049524;28;20457;-80
2023/02/19 03:53:17;;;;;;;15.65;9.07;;;;;;;;;;5053963;28;20369;-81
2023/02/19 03:56:12;;;;;;;14.32;8.93;;;;;;;;;;5054535;28;20021;-80
2023/02/19 03:59:04;;;;;;;14.93;9.00;;;;;;;;;;5054351;28;20079;-78
2023/02/19 04:01:53;;;;;;;12.80;9.00;;;;;;;;;;5053626;28;20465;-81
2023/02/19 04:04:42;;;;;;;15.80;9.30;;;;;;;;;;5054417;28;20112;-80
2023/02/19 04:07:30;;;;;;;17.50;9.77;;;;;;;;;;5054515;28;20021;-80
2023/02/19 04:10:16;;;;;;;17.35;9.30;;;;;;;;;;5054757;28;20433;-80
2023/02/19 04:13:05;;;;;;;14.57;8.95;;;;;;;;;;5054118;28;20449;-79
2023/02/19 04:15:52;;;;;;;17.50;9.20;;;;;;;;;;5054452;28;20025;-80
2023/02/19 04:18:39;;;;;;;18.98;10.05;;;;;;;;;;5054937;28;20454;-81
2023/02/19 04:21:27;;;;;;;17.27;10.10;;;;;;;;;;5054432;28;20021;-80
2023/02/19 04:24:15;;;;;;;15.60;9.68;;;;;;;;;;5056496;28;20025;-80
2023/02/19 04:27:02;;;;;;;15.18;9.80;;;;;;;;;;5058122;28;20099;-80
2023/02/19 04:29:47;;;;;;;15.77;9.45;;;;;;;;;;5058104;28;20029;-80
2023/02/19 04:32:33;;;;;;;17.92;10.02;;;;;;;;;;5057458;28;20083;-78
2023/02/19 04:35:19;;;;;;;17.00;9.75;;;;;;;;;;5058459;28;20025;-77
2023/02/19 04:38:04;;;;;;;16.13;10.02;;;;;;;;;;5057731;28;20066;-79
2023/02/19 04:40:50;;;;;;;17.40;10.10;;;;;;;;;;5057361;28;20024;-78
2023/02/19 04:43:35;;;;;;;17.10;9.95;;;;;;;;;;5058829;28;20106;-77
2023/02/19 04:46:21;;;;;;;15.80;9.77;;;;;;;;;;5057046;28;20024;-77
2023/02/19 04:49:07;;;;;;;15.95;9.20;;;;;;;;;;5058051;28;20507;-79
2023/02/19 04:51:52;;;;;;;15.30;9.63;;;;;;;;;;5057415;28;20043;-78
2023/02/19 04:54:38;;;;;;;18.00;10.23;;;;;;;;;;5056933;28;20107;-78
2023/02/19 04:57:23;;;;;;;16.27;10.05;;;;;;;;;;5057724;28;20025;-78
2023/02/19 05:00:10;;;;;;;18.05;10.40;;;;;;;;;;5057464;28;20021;-78
2023/02/19 05:02:55;;;;;;;23.70;11.27;;;;;;;;;;5058202;28;20025;-77
2023/02/19 05:05:44;;;;;;;21.40;10.98;;;;;;;;;;5058142;28;20090;-79
2023/02/19 05:08:29;;;;;;;21.42;11.23;;;;;;;;;;5056317;28;20036;-78
2023/02/19 05:11:15;;;;;;;19.92;11.75;;;;;;;;;;5057318;28;20108;-78
2023/02/19 05:14:01;;;;;;;22.10;11.77;;;;;;;;;;5060900;28;20040;-81
2023/02/19 05:16:46;;;;;;;19.90;11.48;;;;;;;;;;5061681;28;20035;-77
2023/02/19 05:19:32;;;;;;;20.80;12.30;;;;;;;;;;5057196;28;20543;-80
2023/02/19 05:22:18;;;;;;;19.42;11.57;;;;;;;;;;5059301;28;20357;-80
2023/02/19 05:25:03;;;;;;;19.75;11.63;;;;;;;;;;5057265;28;20025;-81
2023/02/19 05:28:15;;;;;;;18.52;11.43;;;;;;;;;;5059862;28;20021;-75
2023/02/19 05:30:55;;;;;;;21.15;11.15;;;;;;;;;;5058587;28;20414;-79
2023/02/19 05:33:42;;;;;;;19.63;12.10;;;;;;;;;;5060199;28;20477;-81
2023/02/19 05:36:28;;;;;;;20.48;11.23;;;;;;;;;;5062058;28;20365;-83
2023/02/19 05:39:14;;;;;;;21.92;11.73;;;;;;;;;;5058228;28;20072;-80
2023/02/19 05:41:59;;;;;;;16.90;10.32;;;;;;;;;;5057473;28;20025;-79
2023/02/19 05:44:45;;;;;;;18.58;11.07;;;;;;;;;;5059064;28;20025;-80
2023/02/19 05:47:30;;;;;;;20.23;12.52;;;;;;;;;;5057742;28;20017;-81
2023/02/19 05:50:16;;;;;;;19.65;11.18;;;;;;;;;;5058987;28;20343;-80
2023/02/19 05:53:02;;;;;;;23.67;11.77;;;;;;;;;;5058592;28;20343;-81
2023/02/19 05:55:48;;;;;;;18.83;11.38;;;;;;;;;;5060285;28;20021;-79
2023/02/19 05:58:34;;;;;;;20.92;11.65;;;;;;;;;;5064279;28;20036;-81
2023/02/19 06:01:20;;;;;;;18.17;11.32;;;;;;;;;;5058897;28;20096;-82
2023/02/19 06:04:06;;;;;;;18.73;11.10;;;;;;;;;;5057492;28;20013;-81
2023/02/19 06:06:51;;;;;;;18.67;11.60;;;;;;;;;;5057502;28;20456;-82
2023/02/19 06:09:37;;;;;;;17.40;11.65;;;;;;;;;;5057714;28;20032;-81
2023/02/19 06:12:22;;;;;;;21.38;12.18;;;;;;;;;;5056817;28;20036;-82
2023/02/19 06:15:08;;;;;;;21.90;11.60;;;;;;;;;;5057072;28;20032;-82
2023/02/19 06:17:54;;;;;;;23.92;14.45;;;;;;;;;;5057225;28;20062;-84
2023/02/19 06:20:39;;;;;;;19.77;12.10;;;;;;;;;;5055535;28;20017;-82
2023/02/19 06:23:26;;;;;;;21.80;13.02;;;;;;;;;;5056796;28;20036;-82
2023/02/19 06:26:14;;;;;;;20.92;12.65;;;;;;;;;;5055795;28;20040;-81
2023/02/19 06:29:00;;;;;;;19.90;12.43;;;;;;;;;;5054885;28;20060;-81
2023/02/19 06:31:46;;;;;;;20.45;12.15;;;;;;;;;;5057172;28;20044;-81
2023/02/19 06:34:32;;;;;;;20.70;12.15;;;;;;;;;;5057241;28;20063;-81
2023/02/19 06:37:17;;;;;;;19.83;12.02;;;;;;;;;;5059097;28;20027;-80
2023/02/19 06:40:03;;;;;;;19.33;12.10;;;;;;;;;;5078797;28;20053;-81
2023/02/19 06:42:49;;;;;;;19.05;11.38;;;;;;;;;;5055623;28;20029;-82
2023/02/19 06:45:34;;;;;;;22.63;12.50;;;;;;;;;;5056951;28;20021;-82
2023/02/19 06:48:20;;;;;;;22.35;12.23;;;;;;;;;;5055830;28;20021;-81
2023/02/19 06:51:06;;;;;;;19.17;12.05;;;;;;;;;;5054311;28;20083;-84
2023/02/19 06:53:52;;;;;;;22.27;12.68;;;;;;;;;;5056615;28;20021;-81
2023/02/19 06:56:38;;;;;;;23.55;12.98;;;;;;;;;;5057871;28;20052;-82
2023/02/19 06:59:24;;;;;;;20.40;13.07;;;;;;;;;;5055741;28;20139;-81
2023/02/19 07:02:11;;;;;;;20.05;13.18;;;;;;;;;;5056900;28;20013;-82
2023/02/19 07:04:56;;;;;;;21.52;12.77;;;;;;;;;;5067732;28;20013;-82
2023/02/19 07:07:44;;;;;;;21.40;13.35;;;;;;;;;;5068600;28;20031;-80
2023/02/19 07:10:29;;;;;;;20.67;13.65;;;;;;;;;;5060810;28;20017;-82
2023/02/19 07:13:15;;;;;;;23.73;14.68;;;;;;;;;;5058647;28;20489;-82
2023/02/19 07:16:02;;;;;;;23.10;13.30;;;;;;;;;;5054714;28;20025;-82
2023/02/19 07:18:47;;;;;;;20.25;13.60;;;;;;;;;;5056420;28;20079;-81
2023/02/19 07:21:36;;;;;;;22.13;14.27;;;;;;;;;;5056034;28;20024;-83
2023/02/19 07:24:22;;;;;;;22.80;14.63;;;;;;;;;;5055596;28;20396;-82
2023/02/19 07:27:08;;;;;;;25.17;15.57;;;;;;;;;;5054780;28;20025;-82
2023/02/19 07:29:53;;;;;;;25.75;16.23;;;;;;;;;;5054726;28;20445;-81
2023/02/19 07:32:44;;;;;;;26.23;15.65;;;;;;;;;;5054664;28;20068;-82
2023/02/19 07:35:29;;;;;;;34.10;16.42;;;;;;;;;;5059902;28;20330;-83
2023/02/19 07:38:16;;;;;;;27.85;15.50;;;;;;;;;;5058492;28;20103;-81
2023/02/19 07:41:02;;;;;;;26.10;15.90;;;;;;;;;;5056199;28;20021;-82
2023/02/19 07:43:48;;;;;;;27.95;16.50;;;;;;;;;;5054312;28;20021;-83
2023/02/19 07:46:33;;;;;;;25.52;16.65;;;;;;;;;;5056288;28;20021;-82
2023/02/19 07:49:19;;;;;;;25.27;15.82;;;;;;;;;;5055650;28;20131;-83
2023/02/19 07:52:05;;;;;;;28.30;15.35;;;;;;;;;;5054284;28;20025;-82
2023/02/19 07:54:50;;;;;;;24.92;16.63;;;;;;;;;;5054255;28;20064;-82
2023/02/19 07:57:36;;;;;;;26.20;16.67;;;;;;;;;;5055110;28;20098;-81
2023/02/19 08:00:21;;;;;;;27.67;16.65;;;;;;;;;;5057881;28;20040;-81
2023/02/19 08:03:07;;;;;;;27.38;17.35;;;;;;;;;;5060414;28;20361;-85
2023/02/19 08:05:53;;;;;;;29.40;16.92;;;;;;;;;;5058821;28;20135;-82
2023/02/19 08:08:39;;;;;;;25.33;16.67;;;;;;;;;;5058693;28;20334;-82
2023/02/19 08:14:29;;;;;;;29.23;16.83;;;;;;;;;;5059359;28;20040;-84
2023/02/19 08:17:14;;;;;;;24.38;16.30;;;;;;;;;;5059110;28;20028;-82
2023/02/19 08:20:00;;;;;;;23.15;15.95;;;;;;;;;;5059903;28;20018;-82
2023/02/19 08:22:46;;;;;;;38.10;16.95;;;;;;;;;;5058453;28;20032;-82
2023/02/19 08:25:31;;;;;;;25.80;16.60;;;;;;;;;;5060241;28;20095;-82
2023/02/19 08:28:18;;;;;;;27.58;16.15;;;;;;;;;;5059191;28;20025;-83
2023/02/19 08:31:04;;;;;;;48.33;17.25;;;;;;;;;;5057712;28;20032;-84
2023/02/19 08:33:50;;;;;;;28.42;16.67;;;;;;;;;;5058603;28;20436;-83
2023/02/19 08:36:36;;;;;;;24.77;16.02;;;;;;;;;;5059119;28;20021;-83
2023/02/19 08:39:22;;;;;;;26.08;16.23;;;;;;;;;;5059013;28;20216;-83
2023/02/19 08:42:07;;;;;;;26.15;16.10;;;;;;;;;;5058698;28;20013;-83
2023/02/19 08:44:53;;;;;;;28.45;17.55;;;;;;;;;;5057467;28;20170;-83
2023/02/19 08:47:39;;;;;;;24.83;16.83;;;;;;;;;;5058820;28;20028;-83
2023/02/19 08:50:25;;;;;;;24.83;15.52;;;;;;;;;;5058454;28;20116;-82
2023/02/19 08:53:10;;;;;;;24.02;15.85;;;;;;;;;;5058786;28;20099;-83
2023/02/19 08:55:56;;;;;;;24.27;15.75;;;;;;;;;;5057480;28;20029;-82
2023/02/19 08:58:42;;;;;;;24.95;15.43;;;;;;;;;;5059105;28;20021;-82
2023/02/19 09:01:28;;;;;;;24.48;15.65;;;;;;;;;;5058151;28;20104;-82
2023/02/19 09:04:13;;;;;;;25.45;16.50;;;;;;;;;;5060899;28;20036;-81
2023/02/19 09:06:59;;;;;;;29.70;16.20;;;;;;;;;;5061947;28;20405;-80
2023/02/19 09:09:45;;;;;;;23.02;15.70;;;;;;;;;;5066203;28;20503;-80
2023/02/19 09:12:32;;;;;;;22.63;15.52;;;;;;;;;;5068414;28;20028;-81
2023/02/19 09:15:17;;;;;;;22.95;15.05;;;;;;;;;;5061185;28;20029;-82
2023/02/19 09:18:03;;;;;;;26.00;15.38;;;;;;;;;;5059241;28;20028;-82
2023/02/19 09:20:49;;;;;;;19.60;13.55;;;;;;;;;;5061675;28;20392;-81
2023/02/19 09:23:35;;;;;;;24.58;15.05;;;;;;;;;;5060218;28;20053;-81
2023/02/19 09:26:21;;;;;;;21.67;15.30;;;;;;;;;;5059489;28;20024;-83
2023/02/19 09:29:06;;;;;;;20.77;14.13;;;;;;;;;;5060376;28;20091;-81
2023/02/19 09:31:58;;;;;;;24.13;13.77;;;;;;;;;;5061049;28;20049;-81
2023/02/19 09:34:44;;;;;;;35.70;14.82;;;;;;;;;;5058957;28;20442;-82
2023/02/19 09:37:30;;;;;;;25.15;13.90;;;;;;;;;;5058188;28;20024;-82
2023/02/19 09:40:20;;;;;;;25.02;14.02;;;;;;;;;;5058858;28;20020;-82
2023/02/19 09:43:14;;;;;;;19.67;13.23;;;;;;;;;;5057206;28;20021;-82
2023/02/19 09:46:06;;;;;;;26.45;13.48;;;;;;;;;;5058002;28;20022;-82
2023/02/19 09:48:52;;;;;;;20.80;13.65;;;;;;;;;;5059252;28;20029;-83
2023/02/19 09:51:40;;;;;;;20.35;12.68;;;;;;;;;;5057891;28;20021;-83
2023/02/19 09:54:27;;;;;;;18.98;12.32;;;;;;;;;;5057429;28;20073;-83
2023/02/19 09:57:17;;;;;;;19.20;11.95;;;;;;;;;;5061884;28;20021;-80
2023/02/19 10:00:04;;;;;;;19.58;12.93;;;;;;;;;;5065385;28;20072;-82
2023/02/19 10:02:50;;;;;;;18.13;11.82;;;;;;;;;;5067023;28;20067;-81
2023/02/19 10:05:37;;;;;;;19.58;12.07;;;;;;;;;;5067407;28;20025;-82
2023/02/19 10:08:23;;;;;;;20.27;13.50;;;;;;;;;;5069780;28;20027;-80
2023/02/19 10:11:10;;;;;;;20.95;12.38;;;;;;;;;;5069699;28;20025;-81
2023/02/19 10:14:08;;;;;;;19.40;12.50;;;;;;;;;;5071055;28;20028;-81
2023/02/19 10:16:55;;;;;;;24.13;10.75;;;;;;;;;;5072273;28;20025;-79
2023/02/19 10:19:41;;;;;;;23.02;10.70;;;;;;;;;;5073920;28;20028;-82
2023/02/19 10:22:27;;;;;;;15.45;9.85;;;;;;;;;;5070654;28;20047;-81
2023/02/19 10:25:15;;;;;;;14.95;10.52;;;;;;;;;;5070398;28;20056;-80
2023/02/19 10:28:02;;;;;;;18.10;10.25;;;;;;;;;;5066661;28;20453;-81
2023/02/19 10:30:51;;;;;;;19.48;10.15;;;;;;;;;;5070941;28;20017;-79
2023/02/19 10:33:47;;;;;;;14.57;10.48;;;;;;;;;;5068781;28;20037;-79
2023/02/19 10:36:40;;;;;;;16.15;10.13;;;;;;;;;;5069548;28;20014;-75
2023/02/19 10:39:38;;;;;;;14.95;9.73;;;;;;;;;;5069921;28;20009;-79
2023/02/19 10:42:24;;;;;;;14.05;9.57;;;;;;;;;;5070173;28;20017;-80
2023/02/19 10:45:16;;;;;;;13.63;9.40;;;;;;;;;;5071293;28;20108;-79
2023/02/19 10:48:03;;;;;;;14.35;9.82;;;;;;;;;;5071183;28;20100;-79
2023/02/19 10:50:56;;;;;;;15.38;9.55;;;;;;;;;;5073935;28;20025;-81
2023/02/19 10:53:45;;;;;;;14.82;9.85;;;;;;;;;;5071596;28;20017;-80
2023/02/19 10:56:32;;;;;;;13.85;9.57;;;;;;;;;;5060704;28;20032;-80
2023/02/19 10:59:18;;;;;;;24.67;10.63;;;;;;;;;;5059637;28;20025;-80
2023/02/19 11:02:14;;;;;;;16.52;9.88;;;;;;;;;;5057087;28;20074;-81
2023/02/19 11:05:06;;;;;;;12.98;9.48;;;;;;;;;;5056520;28;20356;-82
2023/02/19 11:07:55;;;;;;;15.30;9.43;;;;;;;;;;5056274;28;20090;-79
2023/02/19 11:10:44;;;;;;;13.15;8.80;;;;;;;;;;5055937;28;20017;-80
2023/02/19 11:13:31;;;;;;;17.35;8.90;;;;;;;;;;5057033;28;20363;-80
2023/02/19 11:16:17;;;;;;;20.88;8.80;;;;;;;;;;5058743;28;20393;-80
2023/02/19 11:19:02;;;;;;;18.45;9.15;;;;;;;;;;5057518;28;20025;-80
2023/02/19 11:21:48;;;;;;;17.60;8.20;;;;;;;;;;5059617;28;20456;-81
2023/02/19 11:24:39;;;;;;;13.60;8.25;;;;;;;;;;5059221;28;20025;-81
2023/02/19 11:27:25;;;;;;;12.52;8.65;;;;;;;;;;5060059;28;20017;-81
2023/02/19 11:30:40;;;;;;;14.65;8.82;;;;;;;;;;5060006;28;20373;-80
2023/02/19 11:33:26;;;;;;;11.07;8.00;;;;;;;;;;5057566;28;20045;-82
2023/02/19 11:36:15;;;;;;;57.17;45.38;;;;;;;;;;5070237;28;20154;-80
2023/02/19 11:39:20;;;;;;;13.38;8.30;;;;;;;;;;5072265;28;20492;-80
2023/02/19 11:42:12;;;;;;;14.20;8.32;;;;;;;;;;5067399;28;20021;-79
2023/02/19 11:45:17;;;;;;;13.68;8.90;;;;;;;;;;5069996;28;20021;-77
2023/02/19 11:48:18;;;;;;;10.32;8.30;;;;;;;;;;5066547;28;20021;-79
2023/02/19 11:51:24;;;;;;;18.90;8.93;;;;;;;;;;5070062;28;20021;-79
2023/02/19 11:54:21;;;;;;;16.35;8.55;;;;;;;;;;5069665;28;20025;-76
2023/02/19 11:57:13;;;;;;;15.13;8.50;;;;;;;;;;5060687;28;20044;-75
2023/02/19 12:00:20;;;;;;;11.63;7.82;;;;;;;;;;5061386;28;20058;-76
2023/02/19 12:03:24;;;;;;;12.82;7.93;;;;;;;;;;5063809;28;20033;-76
2023/02/19 12:06:22;;;;;;;16.42;7.68;;;;;;;;;;5064876;28;20040;-75
2023/02/19 12:09:28;;;;;;;15.93;7.22;;;;;;;;;;5065741;28;20021;-76
2023/02/19 12:12:16;;;;;;;13.82;6.97;;;;;;;;;;5037559;28;20501;-75
2023/02/19 12:15:15;;;;;;;13.60;7.32;;;;;;;;;;5056444;28;20427;-76
2023/02/19 12:18:13;;;;;;;11.52;7.03;;;;;;;;;;5055927;28;20135;-76
2023/02/19 12:21:13;;;;;;;10.07;6.78;;;;;;;;;;5054787;28;20017;-77
2023/02/19 12:24:05;;;;;;;16.00;6.68;;;;;;;;;;5054626;28;20013;-75
2023/02/19 12:27:02;;;;;;;15.82;6.38;;;;;;;;;;5054731;28;20094;-76
2023/02/19 12:30:00;;;;;;;10.98;5.63;;;;;;;;;;5054322;28;20048;-76
2023/02/19 12:32:51;;;;;;;9.93;5.85;;;;;;;;;;5053405;28;20045;-77
2023/02/19 12:35:40;;;;;;;10.02;6.22;;;;;;;;;;5054990;28;20063;-75
2023/02/19 12:38:25;;;;;;;10.90;6.50;;;;;;;;;;5054441;28;20357;-77
2023/02/19 12:41:31;;;;;;;10.60;6.20;;;;;;;;;;5057690;28;20025;-75
2023/02/19 12:44:20;;;;;;;17.27;5.60;;;;;;;;;;5056157;28;20051;-77
2023/02/19 12:47:06;;;;;;;9.02;4.97;;;;;;;;;;5058068;28;20108;-76
2023/02/19 12:50:04;;;;;;;9.82;5.28;;;;;;;;;;5057527;28;20104;-77
2023/02/19 12:53:02;;;;;;;9.48;5.63;;;;;;;;;;5057714;28;20120;-77
2023/02/19 12:55:48;;;;;;;7.78;5.15;;;;;;;;;;5057895;28;20364;-79
2023/02/19 12:58:40;;;;;;;6.60;5.15;;;;;;;;;;5058272;28;20033;-80
2023/02/19 13:01:28;;;;;;;8.85;4.80;;;;;;;;;;5054274;28;20021;-79
2023/02/19 13:04:21;;;;;;;8.60;4.50;;;;;;;;;;5058180;28;20017;-78
2023/02/19 13:07:16;;;;;;;15.27;4.70;;;;;;;;;;5057606;28;20335;-79
2023/02/19 13:10:04;;;;;;;7.82;4.85;;;;;;;;;;5057674;28;20555;-79
2023/02/19 13:12:50;;;;;;;9.73;5.10;;;;;;;;;;5056913;28;20029;-79
2023/02/19 13:15:38;;;;;;;7.25;4.70;;;;;;;;;;5056536;28;20044;-79
2023/02/19 13:18:30;;;;;;;5.93;4.72;;;;;;;;;;5057748;28;20017;-78
2023/02/19 13:23:57;;;;;;;7.00;4.60;;;;;;;;;;5058540;28;20064;-78
2023/02/19 13:24:27;;;;;;;6.60;4.90;;;;;;;;;;5076571;28;20096;-77
2023/02/19 13:27:19;;;;;;;11.18;4.75;;;;;;;;;;5077530;28;20052;-78
2023/02/19 13:30:11;;;;;;;10.98;5.03;;;;;;;;;;5077405;28;20074;-76
2023/02/19 13:32:56;;;;;;;7.38;4.90;;;;;;;;;;5075293;28;20052;-78
2023/02/19 13:36:04;;;;;;;8.90;5.47;;;;;;;;;;5075497;28;20476;-78
2023/02/19 13:38:50;;;;;;;6.72;4.82;;;;;;;;;;5075333;28;20115;-76
2023/02/19 13:41:40;;;;;;;7.78;4.50;;;;;;;;;;5075341;28;20021;-76
2023/02/19 13:44:30;;;;;;;6.03;3.88;;;;;;;;;;5075243;28;20013;-76
2023/02/19 13:47:34;;;;;;;7.07;3.50;;;;;;;;;;5075704;28;20326;-79
2023/02/19 13:50:26;;;;;;;7.60;3.20;;;;;;;;;;5075891;28;20085;-77
2023/02/19 13:53:31;;;;;;;7.43;3.17;;;;;;;;;;5075792;28;20032;-78
2023/02/19 13:56:29;;;;;;;12.23;3.47;;;;;;;;;;5074846;28;20020;-77
2023/02/19 13:59:20;;;;;;;4.18;3.28;;;;;;;;;;5076890;28;20017;-78
2023/02/19 14:02:11;;;;;;;4.00;3.20;;;;;;;;;;5074994;28;20031;-78
2023/02/19 14:05:02;;;;;;;4.25;3.20;;;;;;;;;;5074972;28;20048;-78
2023/02/19 14:07:52;;;;;;;5.22;3.40;;;;;;;;;;5075283;28;20373;-78
2023/02/19 14:10:56;;;;;;;4.13;3.45;;;;;;;;;;5075021;28;20025;-78
2023/02/19 14:13:51;;;;;;;8.00;3.15;;;;;;;;;;5074689;28;20469;-78
2023/02/19 14:16:40;;;;;;;4.25;3.00;;;;;;;;;;5074469;28;20017;-77
2023/02/19 14:19:41;;;;;;;4.68;3.42;;;;;;;;;;5076131;28;20021;-77
2023/02/19 14:22:49;;;;;;;7.80;3.28;;;;;;;;;;5074538;28;20026;-78
2023/02/19 14:25:34;;;;;;;3.92;3.10;;;;;;;;;;5074077;28;20017;-77
2023/02/19 14:28:28;;;;;;;3.80;3.13;;;;;;;;;;5074400;28;20024;-77
2023/02/19 14:31:17;;;;;;;4.95;2.90;;;;;;;;;;5074005;28;20387;-77
2023/02/19 14:34:17;;;;;;;4.10;3.08;;;;;;;;;;5074798;28;20119;-77
2023/02/19 14:37:05;;;;;;;6.68;3.00;;;;;;;;;;5080278;28;20029;-77
2023/02/19 14:39:53;;;;;;;5.90;3.40;;;;;;;;;;5074914;28;20103;-76
2023/02/19 14:42:39;;;;;;;4.28;3.10;;;;;;;;;;5077103;28;20514;-79
2023/02/19 14:45:27;;;;;;;4.13;3.17;;;;;;;;;;5074130;28;20078;-78
2023/02/19 14:48:21;;;;;;;4.10;3.08;;;;;;;;;;5074401;28;20027;-80
2023/02/19 14:51:11;;;;;;;5.13;3.45;;;;;;;;;;5075760;28;20085;-81
2023/02/19 14:53:57;;;;;;;5.93;3.70;;;;;;;;;;5074714;28;20348;-79
2023/02/19 14:56:45;;;;;;;5.95;3.22;;;;;;;;;;5075386;28;20369;-80
2023/02/19 14:59:31;;;;;;;4.07;3.20;;;;;;;;;;5073679;28;20106;-79
2023/02/19 15:02:16;;;;;;;4.22;3.58;;;;;;;;;;5074197;28;20440;-79
2023/02/19 15:05:13;;;;;;;5.85;4.00;;;;;;;;;;5074012;28;20089;-78
2023/02/19 15:08:05;;;;;;;6.43;4.25;;;;;;;;;;5076825;28;20506;-78
2023/02/19 15:10:51;;;;;;;6.93;4.07;;;;;;;;;;5093679;28;20092;-79
2023/02/19 15:13:36;;;;;;;5.25;3.90;;;;;;;;;;5059166;28;20014;-79
2023/02/19 15:16:23;;;;;;;4.72;3.78;;;;;;;;;;5034899;28;20061;-79
2023/02/19 15:19:09;;;;;;;7.95;3.88;;;;;;;;;;5035537;28;20025;-78
2023/02/19 15:21:54;;;;;;;6.50;3.50;;;;;;;;;;5034054;28;20025;-79
2023/02/19 15:24:43;;;;;;;4.95;3.47;;;;;;;;;;5034796;28;20075;-76
2023/02/19 15:27:29;;;;;;;5.13;3.72;;;;;;;;;;5054077;28;20027;-79
2023/02/19 15:30:18;;;;;;;6.35;4.03;;;;;;;;;;5064141;28;20031;-78
2023/02/19 15:33:14;;;;;;;5.47;3.65;;;;;;;;;;5073411;28;20057;-77
2023/02/19 15:36:03;;;;;;;7.38;3.60;;;;;;;;;;5055646;28;20021;-78
2023/02/19 15:38:53;;;;;;;6.30;4.30;;;;;;;;;;5055204;28;20120;-80
2023/02/19 15:41:39;;;;;;;6.38;4.00;;;;;;;;;;5054096;28;20441;-80
2023/02/19 15:44:30;;;;;;;5.85;4.20;;;;;;;;;;5054737;28;20460;-81
2023/02/19 15:47:23;;;;;;;7.22;4.68;;;;;;;;;;5053795;28;20017;-79
2023/02/19 15:50:13;;;;;;;8.13;4.38;;;;;;;;;;5054850;28;20418;-79
2023/02/19 15:52:59;;;;;;;7.57;4.13;;;;;;;;;;5053773;28;20021;-79
2023/02/19 15:56:02;;;;;;;10.18;4.40;;;;;;;;;;5045652;28;20021;-80
2023/02/19 15:58:50;;;;;;;8.00;4.65;;;;;;;;;;5033527;28;20029;-80
2023/02/19 16:01:36;;;;;;;6.13;4.60;;;;;;;;;;5033979;28;20021;-81
2023/02/19 16:04:22;;;;;;;11.27;4.80;;;;;;;;;;5033934;28;20029;-81
2023/02/19 16:07:20;;;;;;;8.75;4.80;;;;;;;;;;5033383;28;20017;-79
2023/02/19 16:10:29;;;;;;;8.00;4.82;;;;;;;;;;5032832;28;20120;-79
2023/02/19 16:13:21;;;;;;;6.18;4.68;;;;;;;;;;5034543;28;20025;-79
2023/02/19 16:16:10;;;;;;;9.63;5.03;;;;;;;;;;5032858;28;20457;-81
2023/02/19 16:18:55;;;;;;;7.97;4.70;;;;;;;;;;5033670;28;20030;-79
2023/02/19 16:21:42;;;;;;;9.43;5.00;;;;;;;;;;5037300;28;20417;-82
2023/02/19 16:24:33;;;;;;;14.65;5.20;;;;;;;;;;5037836;28;20026;-82
2023/02/19 16:27:36;;;;;;;10.30;4.63;;;;;;;;;;5037518;28;20029;-80
2023/02/19 16:30:29;;;;;;;6.68;4.50;;;;;;;;;;5037464;28;20040;-81
2023/02/19 16:33:36;;;;;;;9.68;5.13;;;;;;;;;;5036691;28;20053;-79
2023/02/19 16:36:31;;;;;;;10.70;4.88;;;;;;;;;;5037248;28;20021;-78
2023/02/19 16:39:17;;;;;;;7.43;4.53;;;;;;;;;;5037097;28;20017;-81
2023/02/19 16:42:13;;;;;;;7.40;4.28;;;;;;;;;;5039109;28;20449;-82
2023/02/19 16:44:58;;;;;;;6.47;4.65;;;;;;;;;;5045568;28;20022;-82
2023/02/19 16:47:47;;;;;;;11.45;4.68;;;;;;;;;;5045781;28;20059;-81
2023/02/19 16:50:40;;;;;;;5.72;3.95;;;;;;;;;;5046124;28;20097;-82
2023/02/19 16:53:27;;;;;;;8.52;4.18;;;;;;;;;;5044127;28;20454;-83
2023/02/19 16:56:14;;;;;;;12.30;4.90;;;;;;;;;;5048625;28;20021;-81
2023/02/19 16:59:00;;;;;;;13.75;4.55;;;;;;;;;;5059809;28;20021;-79
2023/02/19 17:01:46;;;;;;;7.20;4.53;;;;;;;;;;5061072;28;20017;-76